This is the latest recevied weather packets stored in our database for station/object OK1ZDJ-13. If no packets are shown the sender has not sent any weather packets the latest 1 day(s).
| Time | Temp. | Humidity | Pressure | Rain* | Wind** | Luminosity | Snow |
|---|---|---|---|---|---|---|---|
| 1778096895 | 13.33° C | 92% | 1006.4 hPa | - | - | - | - |
| 1778096295 | 13.33° C | 93% | 1006.4 hPa | - | - | - | - |
| 1778095695 | 13.33° C | 93% | 1006.4 hPa | - | - | - | - |
| 1778094495 | 13.33° C | 93% | 1006.1 hPa | - | - | - | - |
| 1778093295 | 13.89° C | 92% | 1006 hPa | - | - | - | - |
| 1778089095 | 13.33° C | 90% | 1006.5 hPa | - | - | - | - |
| 1778088495 | 13.33° C | 91% | 1006.7 hPa | - | - | - | - |
| 1778087895 | 13.33° C | 90% | 1007.1 hPa | - | - | - | - |
| 1778087295 | 13.33° C | 87% | 1007.2 hPa | - | - | - | - |
| 1778084895 | 16.67° C | 82% | 1005.8 hPa | - | - | - | - |
| 1778084295 | 16.67° C | 82% | 1006.2 hPa | - | - | - | - |
| 1778083695 | 17.22° C | 79% | 1006.8 hPa | - | - | - | - |
| 1778083095 | 17.22° C | 79% | 1006.7 hPa | - | - | - | - |
| 1778082495 | 17.78° C | 79% | 1006 hPa | - | - | - | - |
| 1778081900 | 17.78° C | 73% | 1006 hPa | - | - | - | - |
| 1778075294 | 23.33° C | 37% | 1006.6 hPa | - | - | - | - |
| 1778074694 | 23.33° C | 37% | 1006.7 hPa | - | - | - | - |
| 1778060298 | 19.44° C | 50% | 1008.8 hPa | - | - | - | - |
| 1778059092 | 19.44° C | 51% | 1008.8 hPa | - | - | - | - |
| 1778057892 | 18.89° C | 53% | 1008.7 hPa | - | - | - | - |
| 1778056692 | 18.33° C | 55% | 1008.7 hPa | - | - | - | - |
| 1778056092 | 17.78° C | 55% | 1008.6 hPa | - | - | - | - |
| 1778055492 | 17.78° C | 56% | 1008.6 hPa | - | - | - | - |
| 1778054292 | 17.22° C | 60% | 1008.7 hPa | - | - | - | - |
| 1778053692 | 17.22° C | 59% | 1008.8 hPa | - | - | - | - |
* Rain since midnight (hover to see other rain measurements)
** Current wind speed in m/s (hover to see current wind gust speed)